createdAt,value
2019-05-22T00:02:37.561Z,10.90
2019-05-22T00:05:24.859Z,10.90
2019-05-22T00:07:55.593Z,10.90
2019-05-22T00:10:26.497Z,10.90
2019-05-22T00:12:57.714Z,10.90
2019-05-22T00:15:27.038Z,10.90
2019-05-22T00:17:57.554Z,10.90
2019-05-22T00:20:29.467Z,10.90
2019-05-22T00:23:00.174Z,10.80
2019-05-22T00:25:33.271Z,10.80
2019-05-22T00:28:03.019Z,10.80
2019-05-22T00:30:35.632Z,10.70
2019-05-22T00:33:05.741Z,10.80
2019-05-22T00:35:36.883Z,10.80
2019-05-22T00:38:06.911Z,10.70
2019-05-22T00:40:42.574Z,10.70
2019-05-22T00:43:14.467Z,10.80
2019-05-22T00:45:45.959Z,10.80
2019-05-22T00:48:18.411Z,10.80
2019-05-22T00:51:15.015Z,10.80
2019-05-22T00:53:55.580Z,10.70
2019-05-22T00:56:38.837Z,10.80
2019-05-22T00:59:13.912Z,10.70
2019-05-22T01:01:47.702Z,10.70
2019-05-22T01:04:20.254Z,10.60
2019-05-22T01:06:51.118Z,10.60
2019-05-22T01:09:31.719Z,10.50
2019-05-22T01:12:02.623Z,10.50
2019-05-22T01:14:42.692Z,10.60
2019-05-22T01:17:04.330Z,10.60
2019-05-22T01:19:34.085Z,10.60
2019-05-22T01:22:05.205Z,10.50
2019-05-22T01:24:35.993Z,10.50
2019-05-22T01:27:05.329Z,10.60
2019-05-22T01:29:36.165Z,10.50
2019-05-22T01:32:16.921Z,10.50
2019-05-22T01:34:47.068Z,10.50
2019-05-22T01:37:18.642Z,10.50
2019-05-22T01:40:12.175Z,10.60
2019-05-22T01:42:42.381Z,10.50
2019-05-22T01:45:13.808Z,10.50
2019-05-22T01:47:57.617Z,10.60
2019-05-22T01:50:38.363Z,10.60
2019-05-22T01:53:08.414Z,10.60
2019-05-22T01:55:38.246Z,10.50
2019-05-22T01:58:08.186Z,10.50
2019-05-22T02:00:39.330Z,10.60
2019-05-22T02:03:10.409Z,10.60
2019-05-22T02:05:40.134Z,10.50
2019-05-22T02:08:09.372Z,10.50
2019-05-22T02:10:42.077Z,10.60
2019-05-22T02:13:13.450Z,10.50
2019-05-22T02:15:43.447Z,10.50
2019-05-22T02:18:18.010Z,10.50
2019-05-22T02:20:46.861Z,10.50
2019-05-22T02:23:16.887Z,10.50
2019-05-22T02:25:47.188Z,10.60
2019-05-22T02:28:16.485Z,10.50
2019-05-22T02:30:47.463Z,10.50
2019-05-22T02:33:20.623Z,10.50
2019-05-22T02:35:49.823Z,10.50
2019-05-22T02:38:18.683Z,10.50
2019-05-22T02:40:49.782Z,10.50
2019-05-22T02:43:21.538Z,10.50
2019-05-22T02:45:50.663Z,10.50
2019-05-22T02:48:21.143Z,10.60
2019-05-22T02:50:52.338Z,10.50
2019-05-22T02:53:21.831Z,10.50
2019-05-22T02:55:51.162Z,10.50
2019-05-22T02:58:20.987Z,10.50
2019-05-22T03:01:00.210Z,10.50
2019-05-22T03:03:31.155Z,10.50
2019-05-22T03:06:02.111Z,10.50
2019-05-22T03:09:02.416Z,10.50
2019-05-22T03:11:36.307Z,10.50
2019-05-22T03:14:06.966Z,10.50
2019-05-22T03:16:49.263Z,10.40
2019-05-22T03:19:26.099Z,10.50
2019-05-22T03:21:57.051Z,10.40
2019-05-22T03:24:26.783Z,10.40
2019-05-22T03:26:56.671Z,10.40
2019-05-22T03:29:38.858Z,10.30
2019-05-22T03:32:09.778Z,10.40
2019-05-22T03:34:39.456Z,10.40
2019-05-22T03:37:09.185Z,10.40
2019-05-22T03:39:38.741Z,10.40
2019-05-22T03:42:08.992Z,10.40
2019-05-22T03:44:39.225Z,10.40
2019-05-22T03:47:09.198Z,10.40
2019-05-22T03:49:38.464Z,10.40
2019-05-22T03:52:07.864Z,10.40
2019-05-22T03:54:38.028Z,10.40
2019-05-22T03:57:07.636Z,10.50
2019-05-22T03:59:38.253Z,10.40
2019-05-22T04:02:08.286Z,10.40
2019-05-22T04:04:40.935Z,10.40
2019-05-22T04:07:14.032Z,10.40
2019-05-22T04:09:45.123Z,10.50
2019-05-22T04:12:14.351Z,10.50
2019-05-22T04:14:43.914Z,10.50
2019-05-22T04:17:14.537Z,10.60
2019-05-22T04:19:49.967Z,10.50
2019-05-22T04:22:17.513Z,10.50
2019-05-22T04:24:48.897Z,10.50
2019-05-22T04:27:18.596Z,10.50
2019-05-22T04:29:49.783Z,10.40
2019-05-22T04:32:27.295Z,10.30
2019-05-22T04:34:57.022Z,10.30
2019-05-22T04:37:25.836Z,10.30
2019-05-22T04:39:59.622Z,10.30
2019-05-22T04:42:29.182Z,10.30
2019-05-22T04:45:09.906Z,10.20
2019-05-22T04:47:39.921Z,10.20
2019-05-22T04:50:10.682Z,10.30
2019-05-22T04:52:39.728Z,10.30
2019-05-22T04:55:11.145Z,10.40
2019-05-22T04:57:41.372Z,10.50
2019-05-22T05:00:11.622Z,10.50
2019-05-22T05:02:41.030Z,10.50
2019-05-22T05:05:11.655Z,10.60
2019-05-22T05:07:41.704Z,10.50
2019-05-22T05:10:11.798Z,10.50
2019-05-22T05:12:42.302Z,10.50
2019-05-22T05:15:11.484Z,10.50
2019-05-22T05:17:40.596Z,10.50
2019-05-22T05:20:21.705Z,10.50
2019-05-22T05:22:45.163Z,10.50
2019-05-22T05:25:14.921Z,10.40
2019-05-22T05:27:45.166Z,10.40
2019-05-22T05:30:15.148Z,10.40
2019-05-22T05:32:44.976Z,10.40
2019-05-22T05:35:15.830Z,10.40
2019-05-22T05:37:44.859Z,10.50
2019-05-22T05:40:27.390Z,10.50
2019-05-22T05:42:56.364Z,10.50
2019-05-22T05:45:27.109Z,10.50
2019-05-22T05:47:57.242Z,10.50
2019-05-22T05:50:38.885Z,10.50
2019-05-22T05:52:58.212Z,10.50
2019-05-22T05:55:30.144Z,10.60
2019-05-22T05:58:26.465Z,10.70
2019-05-22T06:00:57.726Z,10.60
2019-05-22T06:03:46.170Z,10.60
2019-05-22T06:07:00.652Z,10.50
2019-05-22T06:09:28.880Z,10.50
2019-05-22T06:11:59.259Z,10.50
2019-05-22T06:14:30.317Z,10.40
2019-05-22T06:17:43.728Z,10.30
2019-05-22T06:20:15.426Z,10.20
2019-05-22T06:23:03.335Z,10.30
2019-05-22T06:25:32.859Z,10.20
2019-05-22T06:28:03.366Z,10.10
2019-05-22T06:30:42.146Z,10.10
2019-05-22T06:33:30.435Z,10.20
2019-05-22T06:36:02.115Z,10.30
2019-05-22T06:38:54.964Z,10.30
2019-05-22T06:41:26.513Z,10.30
2019-05-22T06:44:38.831Z,10.20
2019-05-22T06:47:13.926Z,10.10
2019-05-22T06:49:45.096Z,10.10
2019-05-22T06:52:15.019Z,10.30
2019-05-22T06:54:44.648Z,10.40
2019-05-22T06:57:31.902Z,10.60
2019-05-22T07:00:14.717Z,11.00
2019-05-22T07:02:35.353Z,11.20
2019-05-22T07:05:09.158Z,11.30
2019-05-22T07:07:38.817Z,11.10
2019-05-22T07:10:08.945Z,11.20
2019-05-22T07:12:39.187Z,11.40
2019-05-22T07:15:41.702Z,11.50
2019-05-22T07:18:13.030Z,11.40
2019-05-22T07:20:42.617Z,11.40
2019-05-22T07:23:13.616Z,11.40
2019-05-22T07:25:44.318Z,11.40
2019-05-22T07:28:14.326Z,11.50
2019-05-22T07:30:44.289Z,11.50
2019-05-22T07:33:13.801Z,11.40
2019-05-22T07:35:56.708Z,11.40
2019-05-22T07:38:14.578Z,11.50
2019-05-22T07:40:44.511Z,11.50
2019-05-22T07:43:14.747Z,11.40
2019-05-22T07:45:44.365Z,11.40
2019-05-22T07:48:13.912Z,11.20
2019-05-22T07:50:48.677Z,11.20
2019-05-22T07:53:17.567Z,11.10
2019-05-22T07:55:47.781Z,10.90
2019-05-22T07:58:18.451Z,10.80
2019-05-22T08:00:53.813Z,10.90
2019-05-22T08:03:30.114Z,10.80
2019-05-22T08:05:59.830Z,10.90
2019-05-22T08:08:31.570Z,10.90
2019-05-22T08:11:01.492Z,10.90
2019-05-22T08:13:32.099Z,11.00
2019-05-22T08:16:01.041Z,11.10
2019-05-22T08:18:34.227Z,11.10
2019-05-22T08:21:03.422Z,11.20
2019-05-22T08:23:32.529Z,11.20
2019-05-22T08:26:01.910Z,11.20
2019-05-22T08:28:33.105Z,11.30
2019-05-22T08:31:02.737Z,11.40
2019-05-22T08:33:32.882Z,11.30
2019-05-22T08:36:02.878Z,11.30
2019-05-22T08:38:33.596Z,11.30
2019-05-22T08:41:05.459Z,11.10
2019-05-22T08:43:56.079Z,11.10
2019-05-22T08:46:07.162Z,11.00
2019-05-22T08:48:38.482Z,11.10
2019-05-22T08:51:09.447Z,11.10
2019-05-22T08:53:47.672Z,11.20
2019-05-22T08:56:10.223Z,11.40
2019-05-22T08:58:40.857Z,11.60
2019-05-22T09:01:11.773Z,11.60
2019-05-22T09:03:41.046Z,11.60
2019-05-22T09:06:10.292Z,11.70
2019-05-22T09:08:39.529Z,11.80
2019-05-22T09:11:09.094Z,11.90
2019-05-22T09:13:38.978Z,12.10
2019-05-22T09:16:09.289Z,12.40
2019-05-22T09:18:39.153Z,12.60
2019-05-22T09:21:08.998Z,12.70
2019-05-22T09:23:38.827Z,12.70
2019-05-22T09:26:07.938Z,12.70
2019-05-22T09:28:38.028Z,12.70
2019-05-22T09:31:07.290Z,12.80
2019-05-22T09:33:37.629Z,13.00
2019-05-22T09:36:08.418Z,13.20
2019-05-22T09:38:37.685Z,13.30
2019-05-22T09:41:06.718Z,13.30
2019-05-22T09:43:35.731Z,13.40
2019-05-22T09:46:05.245Z,13.40
2019-05-22T09:48:35.195Z,13.50
2019-05-22T09:51:04.198Z,13.80
2019-05-22T09:53:34.789Z,14.50
2019-05-22T09:56:04.670Z,14.40
2019-05-22T09:58:33.561Z,14.20
2019-05-22T10:01:03.376Z,13.90
2019-05-22T10:03:32.309Z,13.70
2019-05-22T10:06:01.308Z,13.40
2019-05-22T10:08:30.798Z,13.30
2019-05-22T10:11:00.113Z,13.40
2019-05-22T10:13:29.498Z,13.80
2019-05-22T10:15:59.021Z,14.60
2019-05-22T10:18:28.233Z,14.90
2019-05-22T10:20:57.238Z,15.00
2019-05-22T10:23:26.568Z,14.70
2019-05-22T10:25:55.759Z,14.50
2019-05-22T10:28:24.882Z,14.30
2019-05-22T10:30:55.238Z,14.00
2019-05-22T10:33:25.014Z,14.20
2019-05-22T10:35:54.725Z,14.30
2019-05-22T10:38:23.943Z,14.50
2019-05-22T10:40:53.041Z,14.60
2019-05-22T10:43:21.978Z,15.30
2019-05-22T10:45:51.134Z,15.70
2019-05-22T10:48:20.172Z,15.80
2019-05-22T10:50:49.427Z,15.80
2019-05-22T10:53:32.182Z,15.50
2019-05-22T10:55:49.683Z,15.00
2019-05-22T10:58:19.270Z,15.00
2019-05-22T11:00:48.213Z,14.90
2019-05-22T11:03:18.129Z,14.80
2019-05-22T11:06:03.823Z,14.90
2019-05-22T11:08:18.586Z,15.10
2019-05-22T11:10:48.494Z,15.50
2019-05-22T11:13:18.102Z,16.20
2019-05-22T11:15:47.122Z,16.50
2019-05-22T11:18:16.410Z,16.50
2019-05-22T11:20:45.219Z,16.70
2019-05-22T11:23:14.074Z,16.90
2019-05-22T11:25:43.223Z,17.00
2019-05-22T11:28:12.445Z,18.50
2019-05-22T11:30:41.637Z,19.70
2019-05-22T11:33:11.052Z,19.10
2019-05-22T11:35:40.889Z,18.70
2019-05-22T11:38:10.019Z,18.30
2019-05-22T11:40:40.538Z,20.20
2019-05-22T11:43:11.225Z,24.80
2019-05-22T11:45:40.584Z,26.90
2019-05-22T11:48:09.442Z,26.50
2019-05-22T11:50:39.631Z,28.50
2019-05-22T11:53:08.779Z,29.10
2019-05-22T11:55:44.923Z,26.10
2019-05-22T11:58:09.686Z,22.90
2019-05-22T12:00:38.554Z,21.50
2019-05-22T12:03:07.636Z,20.90
2019-05-22T12:05:36.716Z,24.50
2019-05-22T12:08:06.242Z,28.10
2019-05-22T12:10:36.106Z,29.70
2019-05-22T12:13:05.969Z,31.20
2019-05-22T12:15:37.107Z,32.20
2019-05-22T12:18:06.725Z,28.80
2019-05-22T12:20:35.751Z,26.30
2019-05-22T12:23:05.306Z,24.10
2019-05-22T12:25:34.419Z,23.20
2019-05-22T12:28:04.367Z,25.30
2019-05-22T12:30:33.338Z,28.90
2019-05-22T12:33:02.339Z,30.20
2019-05-22T12:35:32.286Z,31.00
2019-05-22T12:38:02.011Z,30.70
2019-05-22T12:40:33.990Z,27.30
2019-05-22T12:43:03.956Z,25.20
2019-05-22T12:45:34.169Z,23.50
2019-05-22T12:48:04.201Z,24.00
2019-05-22T12:50:33.815Z,25.00
2019-05-22T12:53:04.792Z,24.60
2019-05-22T12:55:33.876Z,23.40
2019-05-22T12:58:03.222Z,23.40
2019-05-22T13:00:33.413Z,23.50
2019-05-22T13:03:03.731Z,22.90
2019-05-22T13:05:35.445Z,22.30
2019-05-22T13:08:04.973Z,21.70
2019-05-22T13:10:35.170Z,21.40
2019-05-22T13:13:04.227Z,21.10
2019-05-22T13:15:35.511Z,21.00
2019-05-22T13:18:05.139Z,21.50
2019-05-22T13:20:42.542Z,21.40
2019-05-22T13:23:09.228Z,20.80
2019-05-22T13:25:41.075Z,20.50
2019-05-22T13:28:13.920Z,20.30
2019-05-22T13:30:44.597Z,19.90
2019-05-22T13:33:20.733Z,19.80
2019-05-22T13:35:51.157Z,19.60
2019-05-22T13:38:20.100Z,19.50
2019-05-22T13:40:52.877Z,19.90
2019-05-22T13:43:22.174Z,19.60
2019-05-22T13:45:51.264Z,19.20
2019-05-22T13:48:20.260Z,18.90
2019-05-22T13:50:49.802Z,18.30
2019-05-22T13:53:20.993Z,18.10
2019-05-22T13:55:49.889Z,18.50
2019-05-22T13:58:21.544Z,18.90
2019-05-22T14:00:50.808Z,18.80
2019-05-22T14:03:20.675Z,18.70
2019-05-22T14:05:51.242Z,18.40
2019-05-22T14:08:20.949Z,18.40
2019-05-22T14:10:50.591Z,18.50
2019-05-22T14:13:20.717Z,18.80
2019-05-22T14:15:56.075Z,19.10
2019-05-22T14:18:20.449Z,19.30
2019-05-22T14:20:49.894Z,19.60
2019-05-22T14:23:18.925Z,20.10
2019-05-22T14:25:48.466Z,19.80
2019-05-22T14:28:17.701Z,19.30
2019-05-22T14:30:46.725Z,19.00
2019-05-22T14:33:16.146Z,18.80
2019-05-22T14:35:48.897Z,18.70
2019-05-22T14:38:16.407Z,18.60
2019-05-22T14:40:45.358Z,18.60
2019-05-22T14:43:14.241Z,18.60
2019-05-22T14:45:43.718Z,18.50
2019-05-22T14:48:13.804Z,18.70
2019-05-22T14:50:43.221Z,18.70
2019-05-22T14:53:12.674Z,18.50
2019-05-22T14:55:42.334Z,18.50
2019-05-22T14:58:12.961Z,18.30
2019-05-22T15:00:42.511Z,18.40
2019-05-22T15:03:11.982Z,18.60
2019-05-22T15:05:40.989Z,18.60
2019-05-22T15:08:09.862Z,18.80
2019-05-22T15:10:39.098Z,18.70
2019-05-22T15:13:10.021Z,18.60
2019-05-22T15:15:40.430Z,18.40
2019-05-22T15:18:11.106Z,18.10
2019-05-22T15:21:11.607Z,17.70
2019-05-22T15:23:41.365Z,17.80
2019-05-22T15:26:10.305Z,17.80
2019-05-22T15:28:40.337Z,17.50
2019-05-22T15:31:09.522Z,17.40
2019-05-22T15:33:38.726Z,17.30
2019-05-22T15:36:10.415Z,17.20
2019-05-22T15:38:42.096Z,17.20
2019-05-22T15:41:12.363Z,17.20
2019-05-22T15:43:43.627Z,17.10
2019-05-22T15:46:15.341Z,17.10
2019-05-22T15:48:47.347Z,17.20
2019-05-22T15:51:21.058Z,17.50
2019-05-22T15:53:50.129Z,17.70
2019-05-22T15:56:20.287Z,17.60
2019-05-22T15:58:52.159Z,17.50
2019-05-22T16:01:25.429Z,17.40
2019-05-22T16:03:56.678Z,17.30
2019-05-22T16:06:27.799Z,17.40
2019-05-22T16:08:59.074Z,17.60
2019-05-22T16:11:29.681Z,18.00
2019-05-22T16:14:00.890Z,18.30
2019-05-22T16:16:30.222Z,18.40
2019-05-22T16:19:04.308Z,18.50
2019-05-22T16:21:34.900Z,18.50
2019-05-22T16:24:05.244Z,18.30
2019-05-22T16:26:34.406Z,18.10
2019-05-22T16:29:04.325Z,17.80
2019-05-22T16:31:34.864Z,17.50
2019-05-22T16:34:04.926Z,17.20
2019-05-22T16:36:34.381Z,17.00
2019-05-22T16:39:04.841Z,16.80
2019-05-22T16:41:34.754Z,16.60
2019-05-22T16:44:04.281Z,16.40
2019-05-22T16:46:33.628Z,16.20
2019-05-22T16:49:03.623Z,16.10
2019-05-22T16:51:33.366Z,16.00
2019-05-22T16:54:06.056Z,15.90
2019-05-22T16:56:35.802Z,15.90
2019-05-22T16:59:05.758Z,15.80
2019-05-22T17:01:56.343Z,15.70
2019-05-22T17:04:06.815Z,15.70
2019-05-22T17:06:37.011Z,15.60
2019-05-22T17:09:25.103Z,15.60
2019-05-22T17:11:55.189Z,15.60
2019-05-22T17:14:24.886Z,15.60
2019-05-22T17:16:53.820Z,15.60
2019-05-22T17:19:27.023Z,15.50
2019-05-22T17:21:53.714Z,15.50
2019-05-22T17:24:22.872Z,15.40
2019-05-22T17:26:53.473Z,15.40
2019-05-22T17:29:23.020Z,15.40
2019-05-22T17:31:52.406Z,15.30
2019-05-22T17:34:32.112Z,15.30
2019-05-22T17:37:15.834Z,15.20
2019-05-22T17:39:48.798Z,15.10
2019-05-22T17:42:21.289Z,15.00
2019-05-22T17:44:52.870Z,14.90
2019-05-22T17:47:24.831Z,14.90
2019-05-22T17:49:54.455Z,14.80
2019-05-22T17:52:24.359Z,14.70
2019-05-22T17:54:53.502Z,14.60
2019-05-22T17:57:24.270Z,14.60
2019-05-22T17:59:53.517Z,14.50
2019-05-22T18:02:26.103Z,14.40
2019-05-22T18:04:55.594Z,14.30
2019-05-22T18:07:25.541Z,14.20
2019-05-22T18:09:54.925Z,14.10
2019-05-22T18:12:24.517Z,14.00
2019-05-22T18:14:53.859Z,13.80
2019-05-22T18:17:23.413Z,13.60
2019-05-22T18:19:52.290Z,13.50
2019-05-22T18:22:21.221Z,13.40
2019-05-22T18:24:50.181Z,13.20
2019-05-22T18:27:19.385Z,13.10
2019-05-22T18:29:48.159Z,12.90
2019-05-22T18:32:17.044Z,12.70
2019-05-22T18:34:45.961Z,12.60
2019-05-22T18:37:15.126Z,12.40
2019-05-22T18:39:44.252Z,12.30
2019-05-22T18:42:13.207Z,12.10
2019-05-22T18:44:41.974Z,11.90
2019-05-22T18:47:11.955Z,11.80
2019-05-22T18:49:41.071Z,11.60
2019-05-22T18:52:10.113Z,11.40
2019-05-22T18:54:38.919Z,11.20
2019-05-22T18:57:07.854Z,11.10
2019-05-22T18:59:37.009Z,10.90
2019-05-22T19:02:06.891Z,10.80
2019-05-22T19:04:35.865Z,10.70
2019-05-22T19:07:05.013Z,10.50
2019-05-22T19:09:34.152Z,10.40
2019-05-22T19:12:03.478Z,10.30
2019-05-22T19:14:32.406Z,10.10
2019-05-22T19:17:02.051Z,10.00
2019-05-22T19:19:31.018Z,9.90
2019-05-22T19:21:59.993Z,9.70
2019-05-22T19:24:29.126Z,9.60
2019-05-22T19:26:58.168Z,9.50
2019-05-22T19:29:27.138Z,9.30
2019-05-22T19:31:55.991Z,9.30
2019-05-22T19:34:25.351Z,9.10
2019-05-22T19:36:54.637Z,9.00
2019-05-22T19:39:24.622Z,8.90
2019-05-22T19:42:02.185Z,8.80
2019-05-22T19:44:24.781Z,8.70
2019-05-22T19:46:53.690Z,8.60
2019-05-22T19:49:22.558Z,8.50
2019-05-22T19:51:52.369Z,8.40
2019-05-22T19:54:21.607Z,8.30
2019-05-22T19:56:50.710Z,8.30
2019-05-22T19:59:19.994Z,8.20
2019-05-22T20:01:50.015Z,8.10
2019-05-22T20:04:19.430Z,8.10
2019-05-22T20:06:48.469Z,8.00
2019-05-22T20:09:19.290Z,7.90
2019-05-22T20:11:48.198Z,7.90
2019-05-22T20:14:17.919Z,7.90
2019-05-22T20:16:46.922Z,7.90
2019-05-22T20:19:15.837Z,7.80
2019-05-22T20:21:45.306Z,7.80
2019-05-22T20:24:14.357Z,7.80
2019-05-22T20:26:43.402Z,7.80
2019-05-22T20:29:15.097Z,7.80
2019-05-22T20:31:44.142Z,7.80
2019-05-22T20:34:13.195Z,7.70
2019-05-22T20:36:42.903Z,7.70
2019-05-22T20:39:14.591Z,7.70
2019-05-22T20:41:43.509Z,7.70
2019-05-22T20:44:12.521Z,7.60
2019-05-22T20:46:43.625Z,7.60
2019-05-22T20:49:14.226Z,7.60
2019-05-22T20:51:43.738Z,7.60
2019-05-22T20:54:15.126Z,7.50
2019-05-22T20:56:46.772Z,7.50
2019-05-22T20:59:15.868Z,7.40
2019-05-22T21:01:46.276Z,7.40
2019-05-22T21:04:17.115Z,7.40
2019-05-22T21:06:59.957Z,7.40
2019-05-22T21:09:29.574Z,7.40
2019-05-22T21:11:58.701Z,7.30
2019-05-22T21:14:28.523Z,7.20
2019-05-22T21:16:57.909Z,7.20
2019-05-22T21:19:27.482Z,7.10
2019-05-22T21:21:57.981Z,7.10
2019-05-22T21:24:27.679Z,7.00
2019-05-22T21:26:57.103Z,7.00
2019-05-22T21:29:25.962Z,6.90
2019-05-22T21:31:55.090Z,6.90
2019-05-22T21:34:24.811Z,6.80
2019-05-22T21:36:54.122Z,6.80
2019-05-22T21:39:23.418Z,6.70
2019-05-22T21:41:52.666Z,6.70
2019-05-22T21:44:21.534Z,6.70
2019-05-22T21:46:51.655Z,6.60
2019-05-22T21:49:21.019Z,6.60
2019-05-22T21:51:50.105Z,6.60
2019-05-22T21:54:19.526Z,6.50
2019-05-22T21:56:48.639Z,6.50
2019-05-22T21:59:17.890Z,6.50
2019-05-22T22:01:52.428Z,6.40
2019-05-22T22:04:26.561Z,6.40
2019-05-22T22:06:56.376Z,6.40
2019-05-22T22:09:26.978Z,6.30
2019-05-22T22:11:57.116Z,6.30
2019-05-22T22:14:26.529Z,6.30
2019-05-22T22:16:56.353Z,6.20
2019-05-22T22:19:25.941Z,6.20
2019-05-22T22:21:55.370Z,6.20
2019-05-22T22:24:24.462Z,6.20
2019-05-22T22:26:55.360Z,6.20
2019-05-22T22:29:24.386Z,6.10
2019-05-22T22:31:54.966Z,6.10
2019-05-22T22:34:34.842Z,6.10
2019-05-22T22:37:04.090Z,6.10
2019-05-22T22:39:35.016Z,6.00
2019-05-22T22:42:04.325Z,6.00
2019-05-22T22:44:35.602Z,6.00
2019-05-22T22:47:13.731Z,5.90
2019-05-22T22:49:44.159Z,5.90
2019-05-22T22:52:14.902Z,5.90
2019-05-22T22:54:45.310Z,5.90
2019-05-22T22:57:14.471Z,5.90
2019-05-22T22:59:43.324Z,5.90
2019-05-22T23:02:14.227Z,5.80
2019-05-22T23:04:44.945Z,5.90
2019-05-22T23:07:16.161Z,5.80
2019-05-22T23:09:44.988Z,5.80
2019-05-22T23:12:16.030Z,5.80
2019-05-22T23:14:50.344Z,5.70
2019-05-22T23:17:20.383Z,5.70
2019-05-22T23:19:47.818Z,5.70
2019-05-22T23:22:34.503Z,5.70
2019-05-22T23:25:06.214Z,5.70
2019-05-22T23:27:36.402Z,5.70
2019-05-22T23:30:09.081Z,5.70
2019-05-22T23:32:38.863Z,5.70
2019-05-22T23:35:10.116Z,5.60
2019-05-22T23:37:40.542Z,5.60
2019-05-22T23:40:13.918Z,5.60
2019-05-22T23:42:43.432Z,5.60
2019-05-22T23:45:15.878Z,5.60
2019-05-22T23:48:02.309Z,5.60
2019-05-22T23:50:35.183Z,5.60
2019-05-22T23:53:05.203Z,5.50
2019-05-22T23:55:35.218Z,5.50
2019-05-22T23:58:05.794Z,5.50
